sensor_id;sensor_type;location;lat;lon;timestamp;pressure;altitude;pressure_sealevel;temperature;humidity
55070;BME280;40967;52.070;8.596;2023-08-17T00:00:59;100844.84;;;19.42;88.70
55070;BME280;40967;52.070;8.596;2023-08-17T00:03:24;100840.44;;;19.41;89.12
55070;BME280;40967;52.070;8.596;2023-08-17T00:05:49;100841.09;;;19.38;89.94
55070;BME280;40967;52.070;8.596;2023-08-17T00:08:15;100850.00;;;19.35;90.11
55070;BME280;40967;52.070;8.596;2023-08-17T00:10:40;100847.06;;;19.32;90.78
55070;BME280;40967;52.070;8.596;2023-08-17T00:13:06;100848.47;;;19.29;91.34
55070;BME280;40967;52.070;8.596;2023-08-17T00:15:31;100854.28;;;19.27;92.29
55070;BME280;40967;52.070;8.596;2023-08-17T00:17:57;100846.38;;;19.26;93.01
55070;BME280;40967;52.070;8.596;2023-08-17T00:20:22;100843.13;;;19.24;93.66
55070;BME280;40967;52.070;8.596;2023-08-17T00:22:49;100843.28;;;19.19;94.37
55070;BME280;40967;52.070;8.596;2023-08-17T00:25:14;100851.19;;;19.20;95.02
55070;BME280;40967;52.070;8.596;2023-08-17T00:27:40;100846.50;;;19.21;95.34
55070;BME280;40967;52.070;8.596;2023-08-17T00:30:05;100841.00;;;19.21;95.92
55070;BME280;40967;52.070;8.596;2023-08-17T00:32:31;100838.91;;;19.18;96.32
55070;BME280;40967;52.070;8.596;2023-08-17T00:34:56;100849.75;;;19.23;96.33
55070;BME280;40967;52.070;8.596;2023-08-17T00:37:22;100840.69;;;19.22;96.63
55070;BME280;40967;52.070;8.596;2023-08-17T00:39:47;100843.75;;;19.21;97.05
55070;BME280;40967;52.070;8.596;2023-08-17T00:42:12;100843.28;;;19.19;97.91
55070;BME280;40967;52.070;8.596;2023-08-17T00:44:38;100842.78;;;19.17;98.10
55070;BME280;40967;52.070;8.596;2023-08-17T00:47:03;100835.00;;;19.10;98.31
55070;BME280;40967;52.070;8.596;2023-08-17T00:49:30;100831.59;;;19.13;98.20
55070;BME280;40967;52.070;8.596;2023-08-17T00:51:56;100839.53;;;19.15;99.07
55070;BME280;40967;52.070;8.596;2023-08-17T00:54:24;100846.16;;;19.14;98.61
55070;BME280;40967;52.070;8.596;2023-08-17T00:56:51;100855.53;;;19.13;99.11
55070;BME280;40967;52.070;8.596;2023-08-17T00:59:22;100850.03;;;19.13;99.13
55070;BME280;40967;52.070;8.596;2023-08-17T01:01:48;100849.25;;;19.12;99.06
55070;BME280;40967;52.070;8.596;2023-08-17T01:04:14;100836.28;;;19.13;99.04
55070;BME280;40967;52.070;8.596;2023-08-17T01:06:40;100842.09;;;19.11;99.24
55070;BME280;40967;52.070;8.596;2023-08-17T01:09:05;100822.34;;;19.09;99.42
55070;BME280;40967;52.070;8.596;2023-08-17T01:11:47;100821.06;;;19.07;99.96
55070;BME280;40967;52.070;8.596;2023-08-17T01:17:26;100822.28;;;18.92;100.00
55070;BME280;40967;52.070;8.596;2023-08-17T01:19:53;100822.75;;;18.86;100.00
55070;BME280;40967;52.070;8.596;2023-08-17T01:22:21;100818.03;;;18.78;100.00
55070;BME280;40967;52.070;8.596;2023-08-17T01:24:47;100831.28;;;18.76;100.00
55070;BME280;40967;52.070;8.596;2023-08-17T01:27:13;100842.28;;;18.76;100.00
55070;BME280;40967;52.070;8.596;2023-08-17T01:29:38;100823.69;;;18.73;100.00
55070;BME280;40967;52.070;8.596;2023-08-17T01:32:14;100825.28;;;18.74;100.00
55070;BME280;40967;52.070;8.596;2023-08-17T01:34:47;100829.19;;;18.73;100.00
55070;BME280;40967;52.070;8.596;2023-08-17T01:37:18;100823.69;;;18.73;100.00
55070;BME280;40967;52.070;8.596;2023-08-17T01:39:44;100813.78;;;18.72;100.00
55070;BME280;40967;52.070;8.596;2023-08-17T01:42:15;100814.13;;;18.70;100.00
55070;BME280;40967;52.070;8.596;2023-08-17T01:44:41;100822.69;;;18.69;100.00
55070;BME280;40967;52.070;8.596;2023-08-17T01:47:07;100815.69;;;18.63;100.00
55070;BME280;40967;52.070;8.596;2023-08-17T01:49:32;100818.75;;;18.61;100.00
55070;BME280;40967;52.070;8.596;2023-08-17T01:51:57;100818.19;;;18.51;100.00
55070;BME280;40967;52.070;8.596;2023-08-17T01:54:23;100814.47;;;18.47;100.00
55070;BME280;40967;52.070;8.596;2023-08-17T01:56:49;100813.66;;;18.46;100.00
55070;BME280;40967;52.070;8.596;2023-08-17T01:59:14;100833.22;;;18.45;100.00
55070;BME280;40967;52.070;8.596;2023-08-17T02:01:40;100830.69;;;18.35;100.00
55070;BME280;40967;52.070;8.596;2023-08-17T02:04:05;100837.00;;;18.35;100.00
55070;BME280;40967;52.070;8.596;2023-08-17T02:06:34;100842.16;;;18.37;100.00
55070;BME280;40967;52.070;8.596;2023-08-17T02:08:59;100848.97;;;18.39;100.00
55070;BME280;40967;52.070;8.596;2023-08-17T02:11:25;100833.91;;;18.37;100.00
55070;BME280;40967;52.070;8.596;2023-08-17T02:13:50;100845.31;;;18.44;100.00
55070;BME280;40967;52.070;8.596;2023-08-17T02:16:15;100839.34;;;18.42;100.00
55070;BME280;40967;52.070;8.596;2023-08-17T02:18:41;100840.31;;;18.46;100.00
55070;BME280;40967;52.070;8.596;2023-08-17T02:21:06;100838.06;;;18.48;100.00
55070;BME280;40967;52.070;8.596;2023-08-17T02:23:32;100845.19;;;18.49;100.00
55070;BME280;40967;52.070;8.596;2023-08-17T02:25:57;100834.81;;;18.46;100.00
55070;BME280;40967;52.070;8.596;2023-08-17T02:28:22;100841.97;;;18.47;100.00
55070;BME280;40967;52.070;8.596;2023-08-17T02:30:48;100837.56;;;18.46;100.00
55070;BME280;40967;52.070;8.596;2023-08-17T02:33:14;100836.06;;;18.40;100.00
55070;BME280;40967;52.070;8.596;2023-08-17T02:35:42;100830.69;;;18.35;100.00
55070;BME280;40967;52.070;8.596;2023-08-17T02:38:08;100839.72;;;18.35;100.00
55070;BME280;40967;52.070;8.596;2023-08-17T02:40:33;100835.56;;;18.38;100.00
55070;BME280;40967;52.070;8.596;2023-08-17T02:43:02;100831.38;;;18.40;100.00
55070;BME280;40967;52.070;8.596;2023-08-17T02:45:27;100825.06;;;18.40;100.00
55070;BME280;40967;52.070;8.596;2023-08-17T02:47:52;100828.34;;;18.42;100.00
55070;BME280;40967;52.070;8.596;2023-08-17T02:50:18;100812.66;;;18.42;100.00
55070;BME280;40967;52.070;8.596;2023-08-17T02:52:43;100812.44;;;18.39;100.00
55070;BME280;40967;52.070;8.596;2023-08-17T02:55:08;100813.41;;;18.34;100.00
55070;BME280;40967;52.070;8.596;2023-08-17T02:57:34;100807.41;;;18.32;100.00
55070;BME280;40967;52.070;8.596;2023-08-17T02:59:59;100808.03;;;18.29;100.00
55070;BME280;40967;52.070;8.596;2023-08-17T03:02:25;100818.53;;;18.27;100.00
55070;BME280;40967;52.070;8.596;2023-08-17T03:04:50;100811.88;;;18.28;100.00
55070;BME280;40967;52.070;8.596;2023-08-17T03:07:18;100814.81;;;18.32;100.00
55070;BME280;40967;52.070;8.596;2023-08-17T03:09:44;100811.28;;;18.31;100.00
55070;BME280;40967;52.070;8.596;2023-08-17T03:12:09;100824.06;;;18.36;100.00
55070;BME280;40967;52.070;8.596;2023-08-17T03:14:34;100815.13;;;18.30;100.00
55070;BME280;40967;52.070;8.596;2023-08-17T03:17:03;100819.56;;;18.17;100.00
55070;BME280;40967;52.070;8.596;2023-08-17T03:19:29;100817.72;;;18.04;100.00
55070;BME280;40967;52.070;8.596;2023-08-17T03:21:54;100819.38;;;17.92;100.00
55070;BME280;40967;52.070;8.596;2023-08-17T03:24:19;100814.34;;;17.85;100.00
55070;BME280;40967;52.070;8.596;2023-08-17T03:26:45;100817.38;;;17.84;100.00
55070;BME280;40967;52.070;8.596;2023-08-17T03:29:10;100811.78;;;17.89;100.00
55070;BME280;40967;52.070;8.596;2023-08-17T03:31:36;100810.50;;;17.95;100.00
55070;BME280;40967;52.070;8.596;2023-08-17T03:34:01;100799.44;;;18.00;100.00
55070;BME280;40967;52.070;8.596;2023-08-17T03:36:27;100799.59;;;18.03;100.00
55070;BME280;40967;52.070;8.596;2023-08-17T03:38:53;100802.84;;;18.05;100.00
55070;BME280;40967;52.070;8.596;2023-08-17T03:41:18;100799.31;;;18.05;100.00
55070;BME280;40967;52.070;8.596;2023-08-17T03:43:44;100793.63;;;18.01;100.00
55070;BME280;40967;52.070;8.596;2023-08-17T03:46:09;100798.00;;;18.02;100.00
55070;BME280;40967;52.070;8.596;2023-08-17T03:48:34;100797.47;;;18.00;100.00
55070;BME280;40967;52.070;8.596;2023-08-17T03:51:00;100792.13;;;17.95;100.00
55070;BME280;40967;52.070;8.596;2023-08-17T03:53:26;100791.28;;;17.95;100.00
55070;BME280;40967;52.070;8.596;2023-08-17T03:55:52;100792.94;;;17.96;100.00
55070;BME280;40967;52.070;8.596;2023-08-17T03:58:18;100795.38;;;17.97;100.00
55070;BME280;40967;52.070;8.596;2023-08-17T04:00:50;100792.31;;;17.99;100.00
55070;BME280;40967;52.070;8.596;2023-08-17T04:03:16;100792.94;;;17.96;100.00
55070;BME280;40967;52.070;8.596;2023-08-17T04:05:41;100794.69;;;17.92;100.00
55070;BME280;40967;52.070;8.596;2023-08-17T04:08:07;100786.56;;;17.87;100.00
55070;BME280;40967;52.070;8.596;2023-08-17T04:10:32;100778.25;;;17.78;100.00
55070;BME280;40967;52.070;8.596;2023-08-17T04:12:58;100775.00;;;17.76;100.00
55070;BME280;40967;52.070;8.596;2023-08-17T04:15:23;100781.63;;;17.75;100.00
55070;BME280;40967;52.070;8.596;2023-08-17T04:17:49;100779.69;;;17.76;100.00
55070;BME280;40967;52.070;8.596;2023-08-17T04:20:16;100780.00;;;17.74;100.00
55070;BME280;40967;52.070;8.596;2023-08-17T04:22:43;100783.38;;;17.71;100.00
55070;BME280;40967;52.070;8.596;2023-08-17T04:25:08;100787.53;;;17.69;100.00
55070;BME280;40967;52.070;8.596;2023-08-17T04:27:34;100780.88;;;17.61;100.00
55070;BME280;40967;52.070;8.596;2023-08-17T04:30:00;100784.31;;;17.67;100.00
55070;BME280;40967;52.070;8.596;2023-08-17T04:32:26;100798.22;;;17.70;100.00
55070;BME280;40967;52.070;8.596;2023-08-17T04:34:51;100806.94;;;17.72;100.00
55070;BME280;40967;52.070;8.596;2023-08-17T04:37:16;100800.34;;;17.73;100.00
55070;BME280;40967;52.070;8.596;2023-08-17T04:39:42;100797.72;;;17.68;100.00
55070;BME280;40967;52.070;8.596;2023-08-17T04:42:09;100809.09;;;17.75;100.00
55070;BME280;40967;52.070;8.596;2023-08-17T04:44:34;100814.38;;;17.72;100.00
55070;BME280;40967;52.070;8.596;2023-08-17T04:47:03;100811.31;;;17.73;100.00
55070;BME280;40967;52.070;8.596;2023-08-17T04:49:28;100819.25;;;17.75;100.00
55070;BME280;40967;52.070;8.596;2023-08-17T04:51:54;100820.06;;;17.75;100.00
55070;BME280;40967;52.070;8.596;2023-08-17T04:54:19;100815.56;;;17.79;100.00
55070;BME280;40967;52.070;8.596;2023-08-17T04:56:45;100811.09;;;17.83;100.00
55070;BME280;40967;52.070;8.596;2023-08-17T04:59:10;100809.66;;;17.86;100.00
55070;BME280;40967;52.070;8.596;2023-08-17T05:01:35;100807.38;;;17.88;100.00
55070;BME280;40967;52.070;8.596;2023-08-17T05:04:02;100807.38;;;17.88;100.00
55070;BME280;40967;52.070;8.596;2023-08-17T05:06:28;100802.84;;;17.83;100.00
55070;BME280;40967;52.070;8.596;2023-08-17T05:08:54;100801.91;;;17.88;100.00
55070;BME280;40967;52.070;8.596;2023-08-17T05:11:19;100796.72;;;17.86;100.00
55070;BME280;40967;52.070;8.596;2023-08-17T05:13:44;100809.66;;;17.86;100.00
55070;BME280;40967;52.070;8.596;2023-08-17T05:16:10;100808.84;;;17.85;100.00
55070;BME280;40967;52.070;8.596;2023-08-17T05:18:35;100819.19;;;17.88;100.00
55070;BME280;40967;52.070;8.596;2023-08-17T05:21:00;100819.81;;;17.85;100.00
55070;BME280;40967;52.070;8.596;2023-08-17T05:23:26;100823.66;;;17.84;100.00
55070;BME280;40967;52.070;8.596;2023-08-17T05:25:51;100831.91;;;17.84;100.00
55070;BME280;40967;52.070;8.596;2023-08-17T05:28:17;100832.53;;;17.81;100.00
55070;BME280;40967;52.070;8.596;2023-08-17T05:30:43;100836.28;;;17.85;100.00
55070;BME280;40967;52.070;8.596;2023-08-17T05:33:08;100833.34;;;17.82;100.00
55070;BME280;40967;52.070;8.596;2023-08-17T05:35:33;100839.34;;;17.84;100.00
55070;BME280;40967;52.070;8.596;2023-08-17T05:37:59;100836.59;;;17.84;100.00
55070;BME280;40967;52.070;8.596;2023-08-17T05:40:25;100829.97;;;17.85;100.00
55070;BME280;40967;52.070;8.596;2023-08-17T05:42:50;100832.59;;;17.90;100.00
55070;BME280;40967;52.070;8.596;2023-08-17T05:45:16;100828.94;;;17.94;100.00
55070;BME280;40967;52.070;8.596;2023-08-17T05:47:41;100824.75;;;17.97;100.00
55070;BME280;40967;52.070;8.596;2023-08-17T05:50:07;100817.84;;;17.99;100.00
55070;BME280;40967;52.070;8.596;2023-08-17T05:52:32;100824.31;;;18.03;100.00
55070;BME280;40967;52.070;8.596;2023-08-17T05:54:58;100830.31;;;18.05;100.00
55070;BME280;40967;52.070;8.596;2023-08-17T05:57:23;100840.69;;;18.08;100.00
55070;BME280;40967;52.070;8.596;2023-08-17T05:59:48;100840.06;;;18.11;100.00
55070;BME280;40967;52.070;8.596;2023-08-17T06:02:14;100821.28;;;18.05;100.00
55070;BME280;40967;52.070;8.596;2023-08-17T06:04:39;100834.56;;;18.11;100.00
55070;BME280;40967;52.070;8.596;2023-08-17T06:07:06;100826.00;;;18.13;100.00
55070;BME280;40967;52.070;8.596;2023-08-17T06:09:31;100831.69;;;18.17;100.00
55070;BME280;40967;52.070;8.596;2023-08-17T06:11:57;100823.97;;;18.19;100.00
55070;BME280;40967;52.070;8.596;2023-08-17T06:14:22;100823.97;;;18.19;100.00
55070;BME280;40967;52.070;8.596;2023-08-17T06:16:50;100831.25;;;18.23;100.00
55070;BME280;40967;52.070;8.596;2023-08-17T06:19:16;100835.91;;;18.23;100.00
55070;BME280;40967;52.070;8.596;2023-08-17T06:21:41;100838.84;;;18.26;100.00
55070;BME280;40967;52.070;8.596;2023-08-17T06:24:06;100836.28;;;18.30;100.00
55070;BME280;40967;52.070;8.596;2023-08-17T06:26:32;100836.47;;;18.33;100.00
55070;BME280;40967;52.070;8.596;2023-08-17T06:28:57;100836.19;;;18.35;100.00
55070;BME280;40967;52.070;8.596;2023-08-17T06:31:23;100828.13;;;18.38;100.00
55070;BME280;40967;52.070;8.596;2023-08-17T06:33:53;100822.84;;;18.42;100.00
55070;BME280;40967;52.070;8.596;2023-08-17T06:36:18;100817.22;;;18.47;100.00
55070;BME280;40967;52.070;8.596;2023-08-17T06:38:43;100811.09;;;18.50;100.00
55070;BME280;40967;52.070;8.596;2023-08-17T06:41:09;100817.88;;;18.52;100.00
55070;BME280;40967;52.070;8.596;2023-08-17T06:43:35;100818.69;;;18.53;100.00
55070;BME280;40967;52.070;8.596;2023-08-17T06:46:00;100823.75;;;18.59;100.00
55070;BME280;40967;52.070;8.596;2023-08-17T06:48:27;100835.09;;;18.66;100.00
55070;BME280;40967;52.070;8.596;2023-08-17T06:50:52;100834.50;;;18.69;100.00
55070;BME280;40967;52.070;8.596;2023-08-17T06:53:18;100820.44;;;18.71;100.00
55070;BME280;40967;52.070;8.596;2023-08-17T06:55:43;100842.59;;;18.74;100.00
55070;BME280;40967;52.070;8.596;2023-08-17T06:58:09;100828.53;;;18.76;100.00
55070;BME280;40967;52.070;8.596;2023-08-17T07:00:34;100841.63;;;18.79;100.00
55070;BME280;40967;52.070;8.596;2023-08-17T07:03:01;100839.06;;;18.82;100.00
55070;BME280;40967;52.070;8.596;2023-08-17T07:05:29;100836.00;;;18.84;100.00
55070;BME280;40967;52.070;8.596;2023-08-17T07:07:54;100840.06;;;18.86;100.00
55070;BME280;40967;52.070;8.596;2023-08-17T07:10:20;100843.94;;;18.85;100.00
55070;BME280;40967;52.070;8.596;2023-08-17T07:12:46;100845.09;;;18.93;100.00
55070;BME280;40967;52.070;8.596;2023-08-17T07:15:12;100852.72;;;18.96;100.00
55070;BME280;40967;52.070;8.596;2023-08-17T07:17:37;100849.19;;;18.95;100.00
55070;BME280;40967;52.070;8.596;2023-08-17T07:20:04;100853.22;;;18.98;100.00
55070;BME280;40967;52.070;8.596;2023-08-17T07:22:30;100848.22;;;19.00;100.00
55070;BME280;40967;52.070;8.596;2023-08-17T07:24:55;100853.06;;;19.03;100.00
55070;BME280;40967;52.070;8.596;2023-08-17T07:27:21;100848.72;;;19.02;100.00
55070;BME280;40967;52.070;8.596;2023-08-17T07:29:46;100850.31;;;19.03;100.00
55070;BME280;40967;52.070;8.596;2023-08-17T07:32:12;100844.22;;;19.06;100.00
55070;BME280;40967;52.070;8.596;2023-08-17T07:34:37;100841.91;;;19.08;100.00
55070;BME280;40967;52.070;8.596;2023-08-17T07:37:05;100827.53;;;19.02;100.00
55070;BME280;40967;52.070;8.596;2023-08-17T07:39:32;100846.66;;;19.16;100.00
55070;BME280;40967;52.070;8.596;2023-08-17T07:41:57;100854.28;;;19.19;100.00
55070;BME280;40967;52.070;8.596;2023-08-17T07:44:22;100846.34;;;19.17;100.00
55070;BME280;40967;52.070;8.596;2023-08-17T07:46:48;100848.78;;;19.19;100.00
55070;BME280;40967;52.070;8.596;2023-08-17T07:49:13;100841.66;;;19.18;100.00
55070;BME280;40967;52.070;8.596;2023-08-17T07:51:39;100837.59;;;19.15;100.00
55070;BME280;40967;52.070;8.596;2023-08-17T07:54:04;100851.06;;;19.25;100.00
55070;BME280;40967;52.070;8.596;2023-08-17T07:56:30;100854.78;;;19.30;100.00
55070;BME280;40967;52.070;8.596;2023-08-17T07:58:55;100860.50;;;19.33;100.00
55070;BME280;40967;52.070;8.596;2023-08-17T08:01:21;100863.75;;;19.35;100.00
55070;BME280;40967;52.070;8.596;2023-08-17T08:03:46;100867.00;;;19.37;100.00
55070;BME280;40967;52.070;8.596;2023-08-17T08:06:12;100867.47;;;19.39;100.00
55070;BME280;40967;52.070;8.596;2023-08-17T08:08:38;100863.28;;;19.42;100.00
55070;BME280;40967;52.070;8.596;2023-08-17T08:11:04;100859.22;;;19.39;100.00
55070;BME280;40967;52.070;8.596;2023-08-17T08:13:30;100872.19;;;19.47;100.00
55070;BME280;40967;52.070;8.596;2023-08-17T08:15:55;100874.16;;;19.55;100.00
55070;BME280;40967;52.070;8.596;2023-08-17T08:18:21;100863.47;;;19.62;100.00
55070;BME280;40967;52.070;8.596;2023-08-17T08:20:48;100869.16;;;19.74;100.00
55070;BME280;40967;52.070;8.596;2023-08-17T08:23:13;100851.03;;;19.73;100.00
55070;BME280;40967;52.070;8.596;2023-08-17T08:25:39;100862.06;;;19.90;100.00
55070;BME280;40967;52.070;8.596;2023-08-17T08:28:04;100858.97;;;20.00;100.00
55070;BME280;40967;52.070;8.596;2023-08-17T08:30:30;100853.31;;;20.05;100.00
55070;BME280;40967;52.070;8.596;2023-08-17T08:32:55;100860.16;;;20.16;100.00
55070;BME280;40967;52.070;8.596;2023-08-17T08:35:23;100858.84;;;20.22;100.00
55070;BME280;40967;52.070;8.596;2023-08-17T08:37:50;100856.25;;;20.26;100.00
55070;BME280;40967;52.070;8.596;2023-08-17T08:40:16;100857.56;;;20.28;100.00
55070;BME280;40967;52.070;8.596;2023-08-17T08:42:42;100861.28;;;20.33;100.00
55070;BME280;40967;52.070;8.596;2023-08-17T08:45:09;100862.72;;;20.39;100.00
55070;BME280;40967;52.070;8.596;2023-08-17T08:47:36;100865.16;;;20.40;100.00
55070;BME280;40967;52.070;8.596;2023-08-17T08:50:03;100867.56;;;20.42;100.00
55070;BME280;40967;52.070;8.596;2023-08-17T08:52:42;100863.38;;;20.44;100.00
55070;BME280;40967;52.070;8.596;2023-08-17T08:55:17;100863.53;;;20.48;100.00
55070;BME280;40967;52.070;8.596;2023-08-17T08:57:44;100860.59;;;20.53;100.00
55070;BME280;40967;52.070;8.596;2023-08-17T09:00:12;100862.69;;;20.56;100.00
55070;BME280;40967;52.070;8.596;2023-08-17T09:02:38;100862.50;;;20.61;100.00
55070;BME280;40967;52.070;8.596;2023-08-17T09:05:06;100855.38;;;20.60;100.00
55070;BME280;40967;52.070;8.596;2023-08-17T09:07:34;100848.91;;;20.56;100.00
55070;BME280;40967;52.070;8.596;2023-08-17T09:10:01;100861.06;;;20.63;100.00
55070;BME280;40967;52.070;8.596;2023-08-17T09:12:27;100846.44;;;20.63;100.00
55070;BME280;40967;52.070;8.596;2023-08-17T09:14:52;100848.56;;;20.66;100.00
55070;BME280;40967;52.070;8.596;2023-08-17T09:17:24;100851.16;;;20.71;100.00
55070;BME280;40967;52.070;8.596;2023-08-17T09:19:50;100848.56;;;20.74;100.00
55070;BME280;40967;52.070;8.596;2023-08-17T09:22:43;100843.97;;;20.78;100.00
55070;BME280;40967;52.070;8.596;2023-08-17T09:25:21;100840.25;;;20.83;100.00
55070;BME280;40967;52.070;8.596;2023-08-17T09:27:47;100838.44;;;20.87;100.00
55070;BME280;40967;52.070;8.596;2023-08-17T09:30:13;100836.63;;;20.91;100.00
55070;BME280;40967;52.070;8.596;2023-08-17T09:32:38;100832.09;;;20.95;100.00
55070;BME280;40967;52.070;8.596;2023-08-17T09:35:05;100837.44;;;21.00;100.00
55070;BME280;40967;52.070;8.596;2023-08-17T09:37:31;100835.16;;;21.02;100.00
55070;BME280;40967;52.070;8.596;2023-08-17T09:39:57;100850.56;;;21.03;100.00
55070;BME280;40967;52.070;8.596;2023-08-17T09:42:23;100844.88;;;21.08;100.00
55070;BME280;40967;52.070;8.596;2023-08-17T09:44:53;100844.69;;;21.13;100.00
55070;BME280;40967;52.070;8.596;2023-08-17T09:47:21;100836.41;;;21.13;100.00
55070;BME280;40967;52.070;8.596;2023-08-17T09:49:51;100844.69;;;21.13;100.00
55070;BME280;40967;52.070;8.596;2023-08-17T09:52:21;100837.22;;;21.13;100.00
55070;BME280;40967;52.070;8.596;2023-08-17T09:54:47;100832.03;;;21.12;100.00
55070;BME280;40967;52.070;8.596;2023-08-17T09:57:13;100833.16;;;21.19;100.00
55070;BME280;40967;52.070;8.596;2023-08-17T09:59:38;100838.31;;;21.21;100.00
55070;BME280;40967;52.070;8.596;2023-08-17T10:02:27;100834.41;;;21.22;100.00
55070;BME280;40967;52.070;8.596;2023-08-17T10:04:53;100837.31;;;21.25;99.98
55070;BME280;40967;52.070;8.596;2023-08-17T10:07:20;100830.69;;;21.26;99.89
55070;BME280;40967;52.070;8.596;2023-08-17T10:09:52;100834.69;;;21.29;99.75
55070;BME280;40967;52.070;8.596;2023-08-17T10:12:20;100833.56;;;21.30;99.77
55070;BME280;40967;52.070;8.596;2023-08-17T10:14:55;100834.38;;;21.30;99.62
55070;BME280;40967;52.070;8.596;2023-08-17T10:17:31;100843.59;;;21.34;99.91
55070;BME280;40967;52.070;8.596;2023-08-17T10:20:00;100836.44;;;21.42;100.00
55070;BME280;40967;52.070;8.596;2023-08-17T10:25:11;100843.50;;;21.52;98.62
55070;BME280;40967;52.070;8.596;2023-08-17T10:27:39;100843.50;;;21.52;98.67
55070;BME280;40967;52.070;8.596;2023-08-17T10:30:05;100847.56;;;21.54;98.26
55070;BME280;40967;52.070;8.596;2023-08-17T10:32:31;100839.91;;;21.60;97.83
55070;BME280;40967;52.070;8.596;2023-08-17T10:35:01;100847.50;;;21.63;97.24
55070;BME280;40967;52.070;8.596;2023-08-17T10:37:28;100851.09;;;21.63;97.03
55070;BME280;40967;52.070;8.596;2023-08-17T10:39:53;100844.13;;;21.57;97.00
55070;BME280;40967;52.070;8.596;2023-08-17T10:42:34;100847.75;;;21.49;97.49
55070;BME280;40967;52.070;8.596;2023-08-17T10:45:24;100854.25;;;21.44;97.80
55070;BME280;40967;52.070;8.596;2023-08-17T10:47:47;100857.03;;;21.44;97.88
55070;BME280;40967;52.070;8.596;2023-08-17T10:50:25;100853.63;;;21.39;97.86
55070;BME280;40967;52.070;8.596;2023-08-17T10:52:53;100856.78;;;21.29;98.59
55070;BME280;40967;52.070;8.596;2023-08-17T10:55:44;100859.53;;;21.29;98.98
55070;BME280;40967;52.070;8.596;2023-08-17T10:58:09;100856.09;;;21.32;98.49
55070;BME280;40967;52.070;8.596;2023-08-17T11:00:37;100865.00;;;21.37;98.43
55070;BME280;40967;52.070;8.596;2023-08-17T11:05:50;100832.66;;;21.17;97.64
55070;BME280;40967;52.070;8.596;2023-08-17T11:08:30;100844.53;;;21.18;97.48
55070;BME280;40967;52.070;8.596;2023-08-17T11:11:09;100874.97;;;21.30;97.51
55070;BME280;40967;52.070;8.596;2023-08-17T11:13:36;100860.50;;;21.04;97.92
55070;BME280;40967;52.070;8.596;2023-08-17T11:16:03;100861.28;;;21.04;98.52
55070;BME280;40967;52.070;8.596;2023-08-17T11:18:33;100880.09;;;21.11;99.12
55070;BME280;40967;52.070;8.596;2023-08-17T11:21:00;100843.00;;;20.83;98.90
55070;BME280;40967;52.070;8.596;2023-08-17T11:23:28;100883.00;;;21.06;98.92
55070;BME280;40967;52.070;8.596;2023-08-17T11:25:54;100871.53;;;20.95;99.14
55070;BME280;40967;52.070;8.596;2023-08-17T11:28:21;100849.16;;;20.80;99.13
55070;BME280;40967;52.070;8.596;2023-08-17T11:33:29;100893.59;;;21.04;99.46
55070;BME280;40967;52.070;8.596;2023-08-17T11:36:00;100850.81;;;20.72;99.93
55070;BME280;40967;52.070;8.596;2023-08-17T11:38:30;100884.00;;;20.93;100.00
55070;BME280;40967;52.070;8.596;2023-08-17T11:41:00;100886.09;;;20.96;100.00
55070;BME280;40967;52.070;8.596;2023-08-17T11:43:44;100881.59;;;21.00;100.00
55070;BME280;40967;52.070;8.596;2023-08-17T11:46:11;100845.59;;;20.79;99.91
55070;BME280;40967;52.070;8.596;2023-08-17T11:48:39;100883.69;;;21.03;100.00
55070;BME280;40967;52.070;8.596;2023-08-17T11:51:04;100845.59;;;20.79;100.00
55070;BME280;40967;52.070;8.596;2023-08-17T11:53:34;100877.34;;;20.94;99.98
55070;BME280;40967;52.070;8.596;2023-08-17T11:56:00;100825.22;;;20.63;100.00
55070;BME280;40967;52.070;8.596;2023-08-17T11:58:45;100886.09;;;21.04;100.00
55070;BME280;40967;52.070;8.596;2023-08-17T12:01:12;100879.31;;;21.02;100.00
55070;BME280;40967;52.070;8.596;2023-08-17T12:03:39;100838.78;;;20.77;100.00
55070;BME280;40967;52.070;8.596;2023-08-17T12:06:05;100824.38;;;20.71;100.00
55070;BME280;40967;52.070;8.596;2023-08-17T12:08:30;100842.03;;;20.79;100.00
55070;BME280;40967;52.070;8.596;2023-08-17T12:10:55;100803.50;;;20.62;100.00
55070;BME280;40967;52.070;8.596;2023-08-17T12:13:34;100855.47;;;20.89;100.00
55070;BME280;40967;52.070;8.596;2023-08-17T12:16:00;100794.91;;;20.55;100.00
55070;BME280;40967;52.070;8.596;2023-08-17T12:18:26;100839.28;;;20.79;100.00
55070;BME280;40967;52.070;8.596;2023-08-17T12:20:52;100877.19;;;21.07;100.00
55070;BME280;40967;52.070;8.596;2023-08-17T12:23:18;100828.41;;;20.82;100.00
55070;BME280;40967;52.070;8.596;2023-08-17T12:25:43;100851.56;;;20.98;100.00
55070;BME280;40967;52.070;8.596;2023-08-17T12:28:12;100858.19;;;20.97;100.00
55070;BME280;40967;52.070;8.596;2023-08-17T12:30:37;100827.59;;;20.73;100.00
55070;BME280;40967;52.070;8.596;2023-08-17T12:33:03;100830.66;;;20.80;100.00
55070;BME280;40967;52.070;8.596;2023-08-17T12:35:30;100805.91;;;20.63;100.00
55070;BME280;40967;52.070;8.596;2023-08-17T12:37:56;100819.66;;;20.72;99.73
55070;BME280;40967;52.070;8.596;2023-08-17T12:40:21;100867.59;;;21.05;100.00
55070;BME280;40967;52.070;8.596;2023-08-17T12:42:47;100798.78;;;20.62;99.66
55070;BME280;40967;52.070;8.596;2023-08-17T12:45:13;100862.88;;;21.14;99.50
55070;BME280;40967;52.070;8.596;2023-08-17T12:47:38;100863.16;;;21.21;98.72
55070;BME280;40967;52.070;8.596;2023-08-17T12:50:04;100809.25;;;20.86;98.06
55070;BME280;40967;52.070;8.596;2023-08-17T12:52:30;100837.44;;;21.00;97.85